Time;durP1;ratioP1;P1;durP2;ratioP2;P2;SDS_P1;SDS_P2;PMS_P1;PMS_P2;Temp;Humidity;BMP_temperature;BMP_pressure;BME280_temperature;BME280_humidity;BME280_pressure;Samples;Min_cycle;Max_cycle;Signal;HPM_P1;HPM_P2
2022/07/26 00:00:46;;;;;;;14.90;9.02;;;;;;;;;;4953596;28;20057;-81
2022/07/26 00:03:12;;;;;;;14.55;8.85;;;;;;;;;;4955299;28;20031;-81
2022/07/26 00:05:37;;;;;;;15.27;9.05;;;;;;;;;;4955149;28;20353;-81
2022/07/26 00:08:11;;;;;;;13.85;8.77;;;;;;;;;;4953884;28;20034;-81
2022/07/26 00:10:48;;;;;;;16.33;8.35;;;;;;;;;;4969201;28;20564;-81
2022/07/26 00:13:16;;;;;;;16.42;8.57;;;;;;;;;;4955171;28;20031;-82
2022/07/26 00:15:42;;;;;;;13.48;8.57;;;;;;;;;;4953849;29;20050;-81
2022/07/26 00:18:08;;;;;;;16.67;8.52;;;;;;;;;;4955192;28;20434;-82
2022/07/26 00:20:34;;;;;;;11.93;8.30;;;;;;;;;;4955383;28;20043;-81
2022/07/26 00:22:59;;;;;;;11.07;8.02;;;;;;;;;;4957030;28;20018;-82
2022/07/26 00:25:25;;;;;;;15.93;8.65;;;;;;;;;;4973000;28;20049;-81
2022/07/26 00:27:50;;;;;;;13.60;7.75;;;;;;;;;;4972809;28;20030;-81
2022/07/26 00:30:16;;;;;;;11.70;8.02;;;;;;;;;;4974021;28;20026;-81
2022/07/26 00:32:42;;;;;;;13.70;8.30;;;;;;;;;;4973433;28;20109;-80
2022/07/26 00:35:08;;;;;;;15.55;8.27;;;;;;;;;;4973174;28;20011;-82
2022/07/26 00:37:33;;;;;;;15.80;8.30;;;;;;;;;;4973708;28;20038;-80
2022/07/26 00:39:59;;;;;;;11.57;8.35;;;;;;;;;;4973538;28;20395;-80
2022/07/26 00:42:24;;;;;;;12.77;8.38;;;;;;;;;;4973486;28;20023;-79
2022/07/26 00:44:50;;;;;;;12.88;7.93;;;;;;;;;;4973234;28;20380;-80
2022/07/26 00:47:16;;;;;;;12.70;8.65;;;;;;;;;;4988097;28;20652;-79
2022/07/26 00:49:42;;;;;;;18.58;8.90;;;;;;;;;;4972905;28;20507;-80
2022/07/26 00:52:09;;;;;;;17.90;8.95;;;;;;;;;;4988541;28;20055;-80
2022/07/26 00:54:37;;;;;;;15.52;8.20;;;;;;;;;;4973679;28;20259;-81
2022/07/26 00:57:03;;;;;;;12.88;8.38;;;;;;;;;;4987847;28;20517;-80
2022/07/26 00:59:29;;;;;;;17.98;8.27;;;;;;;;;;4972631;28;20391;-80
2022/07/26 01:01:55;;;;;;;11.07;8.30;;;;;;;;;;4973057;28;20035;-81
2022/07/26 01:04:20;;;;;;;14.18;8.18;;;;;;;;;;4988287;28;20089;-80
2022/07/26 01:06:48;;;;;;;12.95;8.30;;;;;;;;;;4971709;28;20030;-80
2022/07/26 01:09:13;;;;;;;12.23;7.90;;;;;;;;;;4972539;28;20058;-79
2022/07/26 01:11:39;;;;;;;15.55;7.97;;;;;;;;;;4973563;28;20077;-80
2022/07/26 01:14:05;;;;;;;13.95;7.95;;;;;;;;;;4992311;28;20022;-80
2022/07/26 01:16:30;;;;;;;14.18;7.80;;;;;;;;;;4976211;28;20054;-80
2022/07/26 01:18:56;;;;;;;11.93;8.55;;;;;;;;;;4975650;28;20034;-81
2022/07/26 01:21:22;;;;;;;11.50;7.75;;;;;;;;;;4976808;28;20054;-79
2022/07/26 01:23:48;;;;;;;11.32;7.78;;;;;;;;;;4975988;28;20030;-79
2022/07/26 01:26:14;;;;;;;23.67;8.93;;;;;;;;;;4974633;28;20031;-79
2022/07/26 01:28:40;;;;;;;12.00;7.65;;;;;;;;;;4975460;28;20109;-79
2022/07/26 01:31:07;;;;;;;15.27;7.93;;;;;;;;;;4991167;28;20556;-81
2022/07/26 01:33:33;;;;;;;15.13;8.57;;;;;;;;;;4976914;28;20038;-81
2022/07/26 01:35:59;;;;;;;18.92;8.82;;;;;;;;;;4975271;28;20117;-80
2022/07/26 01:38:26;;;;;;;18.70;8.88;;;;;;;;;;4975228;28;20120;-80
2022/07/26 01:40:52;;;;;;;17.20;8.95;;;;;;;;;;4976883;28;20043;-80
2022/07/26 01:43:19;;;;;;;21.08;9.23;;;;;;;;;;4976242;28;20031;-80
2022/07/26 01:45:46;;;;;;;10.52;8.80;;;;;;;;;;4974646;28;20395;-80
2022/07/26 01:48:13;;;;;;;19.50;9.93;;;;;;;;;;4976136;28;20046;-80
2022/07/26 01:50:38;;;;;;;13.00;9.48;;;;;;;;;;4976108;28;20107;-79
2022/07/26 01:53:04;;;;;;;13.65;9.30;;;;;;;;;;4974340;28;20485;-80
2022/07/26 01:55:30;;;;;;;14.82;8.50;;;;;;;;;;4974790;28;20027;-79
2022/07/26 01:57:55;;;;;;;17.90;8.50;;;;;;;;;;4974825;28;20027;-80
2022/07/26 02:00:21;;;;;;;14.10;8.60;;;;;;;;;;4991375;28;20023;-80
2022/07/26 02:02:46;;;;;;;12.20;8.90;;;;;;;;;;4976479;28;20022;-82
2022/07/26 02:05:12;;;;;;;14.65;8.98;;;;;;;;;;4976546;28;20094;-80
2022/07/26 02:07:42;;;;;;;14.10;8.75;;;;;;;;;;4974574;28;20483;-78
2022/07/26 02:10:09;;;;;;;12.98;9.60;;;;;;;;;;4974844;28;20106;-80
2022/07/26 02:12:34;;;;;;;13.32;9.57;;;;;;;;;;4974856;28;20425;-80
2022/07/26 02:15:00;;;;;;;20.60;9.90;;;;;;;;;;4976411;28;20114;-80
2022/07/26 02:17:25;;;;;;;19.63;11.23;;;;;;;;;;4976474;28;20033;-82
2022/07/26 02:19:51;;;;;;;16.48;10.85;;;;;;;;;;4976055;28;20525;-80
2022/07/26 02:22:20;;;;;;;15.68;10.07;;;;;;;;;;4975308;28;20086;-81
2022/07/26 02:24:47;;;;;;;21.30;14.50;;;;;;;;;;4973494;28;20027;-79
2022/07/26 02:27:13;;;;;;;22.33;15.80;;;;;;;;;;4974255;28;20031;-81
2022/07/26 02:29:38;;;;;;;25.55;17.02;;;;;;;;;;4975542;28;20027;-81
2022/07/26 02:32:05;;;;;;;29.15;19.35;;;;;;;;;;4976557;28;20031;-81
2022/07/26 02:34:31;;;;;;;30.08;20.25;;;;;;;;;;4977535;28;20038;-80
2022/07/26 02:36:57;;;;;;;33.88;22.65;;;;;;;;;;4974375;28;20431;-81
2022/07/26 02:39:28;;;;;;;33.08;23.63;;;;;;;;;;4974983;28;20466;-80
2022/07/26 02:41:55;;;;;;;37.08;24.80;;;;;;;;;;4975259;28;20033;-80
2022/07/26 02:44:21;;;;;;;33.53;23.20;;;;;;;;;;4974278;28;20027;-81
2022/07/26 02:46:47;;;;;;;35.15;23.90;;;;;;;;;;4973858;28;20070;-81
2022/07/26 02:49:13;;;;;;;31.17;20.23;;;;;;;;;;4974551;28;20037;-80
2022/07/26 02:51:38;;;;;;;28.52;20.17;;;;;;;;;;4975651;28;20027;-80
2022/07/26 02:54:04;;;;;;;33.15;21.27;;;;;;;;;;4975119;28;20081;-80
2022/07/26 02:56:29;;;;;;;27.83;20.67;;;;;;;;;;4975423;28;20019;-80
2022/07/26 02:58:55;;;;;;;36.25;24.42;;;;;;;;;;4974367;28;20113;-81
2022/07/26 03:01:20;;;;;;;37.15;24.83;;;;;;;;;;4974110;28;20035;-81
2022/07/26 03:03:46;;;;;;;45.47;28.80;;;;;;;;;;4975078;28;20504;-79
2022/07/26 03:06:12;;;;;;;45.60;27.42;;;;;;;;;;4975487;28;20023;-80
2022/07/26 03:08:37;;;;;;;42.03;30.10;;;;;;;;;;4974816;28;20471;-80
2022/07/26 03:11:03;;;;;;;42.17;26.67;;;;;;;;;;4973410;28;20091;-78
2022/07/26 03:13:29;;;;;;;46.42;29.48;;;;;;;;;;4972501;28;20028;-79
2022/07/26 03:15:55;;;;;;;44.25;29.95;;;;;;;;;;4974660;28;20034;-81
2022/07/26 03:18:20;;;;;;;43.78;28.83;;;;;;;;;;4973922;28;20085;-81
2022/07/26 03:20:46;;;;;;;58.38;38.78;;;;;;;;;;4973659;28;20026;-80
2022/07/26 03:23:12;;;;;;;68.30;41.95;;;;;;;;;;4973237;28;20030;-80
2022/07/26 03:25:37;;;;;;;85.15;56.92;;;;;;;;;;4974241;28;20085;-79
2022/07/26 03:28:03;;;;;;;82.10;48.03;;;;;;;;;;4973932;28;20022;-80
2022/07/26 03:30:44;;;;;;;87.18;55.63;;;;;;;;;;4951970;28;20082;-80
2022/07/26 03:33:09;;;;;;;93.32;59.00;;;;;;;;;;4972867;28;20467;-81
2022/07/26 03:35:35;;;;;;;93.32;61.65;;;;;;;;;;4972623;28;20106;-80
2022/07/26 03:38:00;;;;;;;109.72;70.78;;;;;;;;;;4972815;28;20057;-81
2022/07/26 03:40:27;;;;;;;121.50;80.72;;;;;;;;;;4972884;28;20800;-80
2022/07/26 03:42:53;;;;;;;139.13;90.85;;;;;;;;;;4972599;28;20236;-80
2022/07/26 03:45:19;;;;;;;148.13;96.22;;;;;;;;;;4974250;28;20026;-80
2022/07/26 03:47:45;;;;;;;156.38;97.40;;;;;;;;;;4973116;28;20023;-80
2022/07/26 03:50:12;;;;;;;157.13;97.13;;;;;;;;;;4972928;28;20054;-79
2022/07/26 03:52:38;;;;;;;167.32;99.28;;;;;;;;;;4974366;28;20050;-79
2022/07/26 03:56:27;;;;;;;163.18;105.50;;;;;;;;;;4975017;28;20381;-80
2022/07/26 03:57:50;;;;;;;176.68;115.93;;;;;;;;;;4974469;28;20545;-81
2022/07/26 04:00:16;;;;;;;180.18;116.05;;;;;;;;;;4974556;28;20018;-80
2022/07/26 04:02:41;;;;;;;196.55;126.90;;;;;;;;;;4972517;28;20030;-81
2022/07/26 04:05:07;;;;;;;204.80;130.50;;;;;;;;;;4973007;28;20027;-80
2022/07/26 04:07:33;;;;;;;212.50;135.80;;;;;;;;;;4974575;28;20034;-81
2022/07/26 04:09:58;;;;;;;217.23;141.52;;;;;;;;;;4973526;28;20052;-80
2022/07/26 04:12:23;;;;;;;222.07;144.23;;;;;;;;;;4972777;28;20029;-81
2022/07/26 04:14:49;;;;;;;217.65;140.93;;;;;;;;;;4974128;28;20026;-81
2022/07/26 04:17:14;;;;;;;219.90;141.52;;;;;;;;;;4973160;28;20133;-81
2022/07/26 04:19:40;;;;;;;221.82;143.48;;;;;;;;;;4972374;28;20026;-80
2022/07/26 04:22:05;;;;;;;224.68;144.02;;;;;;;;;;4972378;28;20029;-80
2022/07/26 04:24:31;;;;;;;230.20;147.05;;;;;;;;;;4974187;28;20027;-81
2022/07/26 04:26:56;;;;;;;223.20;144.20;;;;;;;;;;4972250;28;20030;-81
2022/07/26 04:29:22;;;;;;;223.05;142.38;;;;;;;;;;4974069;28;20430;-80
2022/07/26 04:31:47;;;;;;;219.75;139.82;;;;;;;;;;4972160;28;20034;-80
2022/07/26 04:34:13;;;;;;;178.10;116.95;;;;;;;;;;4973209;28;20386;-81
2022/07/26 04:36:38;;;;;;;182.45;119.50;;;;;;;;;;4973943;28;20031;-80
2022/07/26 04:39:04;;;;;;;152.75;99.72;;;;;;;;;;4972413;28;20023;-80
2022/07/26 04:41:29;;;;;;;112.88;75.57;;;;;;;;;;4973419;28;20506;-79
2022/07/26 04:43:55;;;;;;;119.63;79.88;;;;;;;;;;4972219;28;20118;-80
2022/07/26 04:46:20;;;;;;;108.63;69.80;;;;;;;;;;4975194;28;20053;-79
2022/07/26 04:48:46;;;;;;;100.28;63.35;;;;;;;;;;4978810;28;20019;-81
2022/07/26 04:51:11;;;;;;;69.00;47.60;;;;;;;;;;4976196;28;20031;-81
2022/07/26 04:53:37;;;;;;;59.92;40.80;;;;;;;;;;4977123;28;20057;-80
2022/07/26 04:56:02;;;;;;;62.70;38.45;;;;;;;;;;4978120;28;20133;-81
2022/07/26 04:58:28;;;;;;;66.60;41.15;;;;;;;;;;4977797;28;20027;-81
2022/07/26 05:00:53;;;;;;;49.33;34.88;;;;;;;;;;4977533;28;20019;-79
2022/07/26 05:03:20;;;;;;;55.42;36.42;;;;;;;;;;4977980;28;20034;-81
2022/07/26 05:05:46;;;;;;;52.08;33.30;;;;;;;;;;4977368;28;20056;-81
2022/07/26 05:08:14;;;;;;;51.38;34.72;;;;;;;;;;4976391;28;20033;-80
2022/07/26 05:10:39;;;;;;;46.95;32.30;;;;;;;;;;4978110;28;20033;-80
2022/07/26 05:13:06;;;;;;;43.15;30.00;;;;;;;;;;4975227;28;20398;-78
2022/07/26 05:15:34;;;;;;;41.33;26.17;;;;;;;;;;4964852;28;20018;-79
2022/07/26 05:18:08;;;;;;;39.58;24.90;;;;;;;;;;4969872;28;20007;-78
2022/07/26 05:20:35;;;;;;;32.97;22.67;;;;;;;;;;4972352;28;20035;-78
2022/07/26 05:23:01;;;;;;;36.10;23.25;;;;;;;;;;4974552;28;20618;-78
2022/07/26 05:25:26;;;;;;;43.25;25.70;;;;;;;;;;4954909;28;20146;-79
2022/07/26 05:27:52;;;;;;;46.40;30.85;;;;;;;;;;4958627;28;20069;-78
2022/07/26 05:30:18;;;;;;;42.75;29.80;;;;;;;;;;4961254;28;20026;-78
2022/07/26 05:32:44;;;;;;;43.58;28.10;;;;;;;;;;4973140;28;20041;-79
2022/07/26 05:35:10;;;;;;;33.60;23.33;;;;;;;;;;4976288;28;20030;-78
2022/07/26 05:37:35;;;;;;;40.67;25.63;;;;;;;;;;4975854;28;20110;-78
2022/07/26 05:40:02;;;;;;;35.05;22.38;;;;;;;;;;4962097;28;20082;-78
2022/07/26 05:42:28;;;;;;;35.60;21.23;;;;;;;;;;4967054;28;20023;-78
2022/07/26 05:44:53;;;;;;;40.13;22.92;;;;;;;;;;4960913;28;20029;-79
2022/07/26 05:47:19;;;;;;;40.00;24.10;;;;;;;;;;4975078;28;20138;-80
2022/07/26 05:49:44;;;;;;;39.58;23.77;;;;;;;;;;4972043;28;20027;-78
2022/07/26 05:52:10;;;;;;;40.25;24.42;;;;;;;;;;4964000;28;20424;-78
2022/07/26 05:54:36;;;;;;;39.40;25.50;;;;;;;;;;4968984;28;20301;-79
2022/07/26 05:57:02;;;;;;;43.83;27.63;;;;;;;;;;4953670;28;20031;-78
2022/07/26 05:59:27;;;;;;;47.55;30.35;;;;;;;;;;4963181;28;21330;-78
2022/07/26 06:01:56;;;;;;;43.20;30.88;;;;;;;;;;4959207;28;20091;-78
2022/07/26 06:04:26;;;;;;;53.20;33.35;;;;;;;;;;4962886;28;20360;-78
2022/07/26 06:06:53;;;;;;;56.35;36.47;;;;;;;;;;4965017;28;20034;-79
2022/07/26 06:09:19;;;;;;;67.75;44.28;;;;;;;;;;4965281;28;20022;-79
2022/07/26 06:11:44;;;;;;;63.08;41.13;;;;;;;;;;4982881;28;20375;-79
2022/07/26 06:14:10;;;;;;;69.55;45.28;;;;;;;;;;4968732;28;20098;-79
2022/07/26 06:16:35;;;;;;;87.88;49.13;;;;;;;;;;4969443;28;20038;-78
2022/07/26 06:19:01;;;;;;;66.82;44.88;;;;;;;;;;4969871;28;20027;-79
2022/07/26 06:21:26;;;;;;;81.70;50.78;;;;;;;;;;4984548;28;20043;-76
2022/07/26 06:23:52;;;;;;;88.13;57.67;;;;;;;;;;4968913;28;20471;-79
2022/07/26 06:26:17;;;;;;;102.00;67.93;;;;;;;;;;4970326;28;20023;-79
2022/07/26 06:28:43;;;;;;;94.78;61.60;;;;;;;;;;4974320;28;20372;-78
2022/07/26 06:31:09;;;;;;;95.30;61.40;;;;;;;;;;4968403;28;20027;-78
2022/07/26 06:33:35;;;;;;;99.20;63.28;;;;;;;;;;4968725;28;20050;-78
2022/07/26 06:36:01;;;;;;;86.22;51.03;;;;;;;;;;4966880;28;20086;-77
2022/07/26 06:38:27;;;;;;;77.38;48.25;;;;;;;;;;4965942;28;20132;-78
2022/07/26 06:40:53;;;;;;;68.65;43.55;;;;;;;;;;4962871;28;20546;-79
2022/07/26 06:43:19;;;;;;;53.92;37.13;;;;;;;;;;4964128;28;20117;-79
2022/07/26 06:45:45;;;;;;;53.28;31.02;;;;;;;;;;4960058;28;20034;-78
2022/07/26 06:48:10;;;;;;;45.72;30.42;;;;;;;;;;4946405;28;20151;-79
2022/07/26 06:50:36;;;;;;;55.60;32.10;;;;;;;;;;4959704;28;20464;-78
2022/07/26 06:53:01;;;;;;;63.03;33.65;;;;;;;;;;4969127;28;20059;-79
2022/07/26 06:55:28;;;;;;;50.13;33.33;;;;;;;;;;4967544;28;20114;-78
2022/07/26 06:57:54;;;;;;;54.75;31.35;;;;;;;;;;4971136;28;20035;-77
2022/07/26 07:00:19;;;;;;;54.85;33.20;;;;;;;;;;4967107;28;20038;-79
2022/07/26 07:02:44;;;;;;;59.30;36.17;;;;;;;;;;4974127;28;20050;-79
2022/07/26 07:05:11;;;;;;;57.15;37.20;;;;;;;;;;4965736;28;20031;-80
2022/07/26 07:07:37;;;;;;;65.35;40.67;;;;;;;;;;4967540;28;20034;-79
2022/07/26 07:10:05;;;;;;;63.85;34.70;;;;;;;;;;4966466;28;20498;-81
2022/07/26 07:12:31;;;;;;;51.50;33.42;;;;;;;;;;4963972;28;20030;-78
2022/07/26 07:14:57;;;;;;;56.85;31.98;;;;;;;;;;4969085;28;20026;-79
2022/07/26 07:17:23;;;;;;;49.35;29.85;;;;;;;;;;4967099;28;20126;-80
2022/07/26 07:19:49;;;;;;;50.83;30.63;;;;;;;;;;4964985;28;20023;-81
2022/07/26 07:22:14;;;;;;;49.58;31.30;;;;;;;;;;4967466;28;20474;-81
2022/07/26 07:24:41;;;;;;;55.60;33.30;;;;;;;;;;4973358;28;20041;-80
2022/07/26 07:27:08;;;;;;;57.85;32.38;;;;;;;;;;4959001;28;20098;-77
2022/07/26 07:29:34;;;;;;;61.97;31.80;;;;;;;;;;4957714;28;20030;-79
2022/07/26 07:31:59;;;;;;;50.72;30.08;;;;;;;;;;4964586;28;20064;-79
2022/07/26 07:34:26;;;;;;;46.85;27.90;;;;;;;;;;4969539;28;20038;-80
2022/07/26 07:36:52;;;;;;;40.67;25.75;;;;;;;;;;4963526;28;20026;-79
2022/07/26 07:39:18;;;;;;;40.85;26.42;;;;;;;;;;4980452;28;20089;-80
2022/07/26 07:41:47;;;;;;;40.97;24.63;;;;;;;;;;4968046;28;20287;-81
2022/07/26 07:44:13;;;;;;;39.00;26.45;;;;;;;;;;4963201;28;20101;-80
2022/07/26 07:46:38;;;;;;;42.22;24.85;;;;;;;;;;4967850;28;20061;-80
2022/07/26 07:49:05;;;;;;;38.78;24.00;;;;;;;;;;4958739;28;20086;-80
2022/07/26 07:51:32;;;;;;;37.35;23.25;;;;;;;;;;4968717;28;20039;-80
2022/07/26 07:53:58;;;;;;;40.35;23.92;;;;;;;;;;4958882;28;20034;-81
2022/07/26 07:56:24;;;;;;;30.30;19.63;;;;;;;;;;4982982;28;20394;-81
2022/07/26 07:58:50;;;;;;;38.13;19.75;;;;;;;;;;4965166;28;20026;-80
2022/07/26 08:01:17;;;;;;;36.38;19.73;;;;;;;;;;4968151;28;20118;-83
2022/07/26 08:03:44;;;;;;;29.55;18.25;;;;;;;;;;4967582;28;20030;-79
2022/07/26 08:06:10;;;;;;;33.10;19.00;;;;;;;;;;4966792;28;20420;-80
2022/07/26 08:08:36;;;;;;;49.83;19.30;;;;;;;;;;4968078;28;20054;-79
2022/07/26 08:11:03;;;;;;;21.75;14.70;;;;;;;;;;4971690;28;20105;-80
2022/07/26 08:13:28;;;;;;;28.92;12.60;;;;;;;;;;4965259;28;20605;-79
2022/07/26 08:15:54;;;;;;;19.50;11.95;;;;;;;;;;4968593;28;20089;-81
2022/07/26 08:18:21;;;;;;;31.40;18.33;;;;;;;;;;4985109;28;20050;-81
2022/07/26 08:20:47;;;;;;;25.23;14.75;;;;;;;;;;4966238;28;20112;-80
2022/07/26 08:23:12;;;;;;;28.17;13.68;;;;;;;;;;4965873;28;20032;-81
2022/07/26 08:25:38;;;;;;;28.10;13.60;;;;;;;;;;4965900;28;20833;-79
2022/07/26 08:28:04;;;;;;;26.92;13.27;;;;;;;;;;4967016;28;20056;-80
2022/07/26 08:30:30;;;;;;;71.15;41.72;;;;;;;;;;4966808;28;20065;-80
2022/07/26 08:32:56;;;;;;;21.90;12.93;;;;;;;;;;4966235;28;20046;-83
2022/07/26 08:35:22;;;;;;;20.20;11.30;;;;;;;;;;4969042;28;20023;-80
2022/07/26 08:37:48;;;;;;;24.90;10.02;;;;;;;;;;4965422;28;20074;-79
2022/07/26 08:40:13;;;;;;;17.80;10.25;;;;;;;;;;4966027;28;20030;-80
2022/07/26 08:42:39;;;;;;;18.00;8.55;;;;;;;;;;4966127;28;20034;-80
2022/07/26 08:45:05;;;;;;;17.48;9.38;;;;;;;;;;4966107;28;20042;-79
2022/07/26 08:47:33;;;;;;;18.08;10.02;;;;;;;;;;4966864;28;20113;-79
2022/07/26 08:49:58;;;;;;;19.88;8.95;;;;;;;;;;4965252;28;20069;-81
2022/07/26 08:52:24;;;;;;;17.75;9.75;;;;;;;;;;4964579;28;20051;-79
2022/07/26 08:54:51;;;;;;;15.10;9.40;;;;;;;;;;4962883;28;20031;-79
2022/07/26 08:57:17;;;;;;;14.48;8.57;;;;;;;;;;4966511;28;20105;-79
2022/07/26 08:59:45;;;;;;;16.80;7.55;;;;;;;;;;4981140;28;20055;-80
2022/07/26 09:02:12;;;;;;;14.75;7.85;;;;;;;;;;4968571;28;20089;-79
2022/07/26 09:04:43;;;;;;;14.85;7.70;;;;;;;;;;4963451;28;20035;-77
2022/07/26 09:07:14;;;;;;;12.18;6.40;;;;;;;;;;4965301;28;20034;-81
2022/07/26 09:10:12;;;;;;;12.43;6.80;;;;;;;;;;4966665;28;20037;-78
2022/07/26 09:12:38;;;;;;;8.63;6.40;;;;;;;;;;4964330;28;20078;-77
2022/07/26 09:15:06;;;;;;;9.43;5.72;;;;;;;;;;4963467;28;20031;-79
2022/07/26 09:17:41;;;;;;;9.38;4.68;;;;;;;;;;4967021;28;20078;-79
2022/07/26 09:20:12;;;;;;;5.68;4.30;;;;;;;;;;4965904;28;20033;-78
2022/07/26 09:23:03;;;;;;;6.53;2.33;;;;;;;;;;4965654;28;20482;-79
2022/07/26 09:25:34;;;;;;;5.53;2.87;;;;;;;;;;4966341;28;20557;-79
2022/07/26 09:28:01;;;;;;;6.97;2.30;;;;;;;;;;4965416;28;20281;-79
2022/07/26 09:33:15;;;;;;;4.43;2.35;;;;;;;;;;4967188;28;20070;-79
2022/07/26 09:35:41;;;;;;;3.53;2.10;;;;;;;;;;4958009;28;20137;-79
2022/07/26 09:38:14;;;;;;;6.75;2.08;;;;;;;;;;4966360;28;20034;-79
2022/07/26 09:40:40;;;;;;;4.88;2.10;;;;;;;;;;4969734;28;20031;-79
2022/07/26 09:43:06;;;;;;;11.32;2.33;;;;;;;;;;4963034;28;20046;-79
2022/07/26 09:45:34;;;;;;;5.35;1.77;;;;;;;;;;4968965;28;20053;-79
2022/07/26 09:48:02;;;;;;;4.30;1.80;;;;;;;;;;4969490;28;20035;-78
2022/07/26 09:50:30;;;;;;;5.40;1.98;;;;;;;;;;4983539;28;20506;-79
2022/07/26 09:52:58;;;;;;;6.38;1.95;;;;;;;;;;4962472;28;20062;-79
2022/07/26 09:55:26;;;;;;;3.78;1.75;;;;;;;;;;4972865;28;20030;-80
2022/07/26 09:57:52;;;;;;;10.55;1.75;;;;;;;;;;4968547;28;20027;-79
2022/07/26 10:00:24;;;;;;;4.65;1.80;;;;;;;;;;4971976;28;20058;-80
2022/07/26 10:02:52;;;;;;;4.28;1.60;;;;;;;;;;4967640;28;20105;-84
2022/07/26 10:05:20;;;;;;;6.22;1.95;;;;;;;;;;4970127;28;20034;-79
2022/07/26 10:07:47;;;;;;;2.45;1.58;;;;;;;;;;4969424;23;20051;-77
2022/07/26 10:10:21;;;;;;;4.55;1.50;;;;;;;;;;4962390;28;20046;-77
2022/07/26 10:12:54;;;;;;;5.15;1.52;;;;;;;;;;4944142;28;20038;-75
2022/07/26 10:15:45;;;;;;;3.20;1.45;;;;;;;;;;4945174;28;20031;-75
2022/07/26 10:18:37;;;;;;;2.80;1.50;;;;;;;;;;4963415;28;20051;-77
2022/07/26 10:21:25;;;;;;;7.15;1.45;;;;;;;;;;4959748;28;20037;-76
2022/07/26 10:24:25;;;;;;;5.30;1.35;;;;;;;;;;4942455;28;20131;-76
2022/07/26 10:26:51;;;;;;;11.57;4.25;;;;;;;;;;4944181;28;20492;-76
2022/07/26 10:29:22;;;;;;;8.43;2.20;;;;;;;;;;4947628;28;20027;-76
2022/07/26 10:32:14;;;;;;;6.95;1.65;;;;;;;;;;4944373;28;20098;-76
2022/07/26 10:34:41;;;;;;;4.18;1.60;;;;;;;;;;4947493;28;20229;-78
2022/07/26 10:37:19;;;;;;;6.88;1.63;;;;;;;;;;4942130;28;20038;-77
2022/07/26 10:39:45;;;;;;;4.18;1.73;;;;;;;;;;4943581;28;20042;-74
2022/07/26 10:42:11;;;;;;;3.95;1.92;;;;;;;;;;4957698;28;20082;-77
2022/07/26 10:44:45;;;;;;;4.57;1.55;;;;;;;;;;4941712;28;20043;-75
2022/07/26 10:47:14;;;;;;;6.90;2.17;;;;;;;;;;4964204;28;20059;-75
2022/07/26 10:49:41;;;;;;;6.28;1.80;;;;;;;;;;4943858;28;20039;-75
2022/07/26 10:52:23;;;;;;;4.30;1.75;;;;;;;;;;4949151;28;20031;-76
2022/07/26 10:54:58;;;;;;;9.48;1.88;;;;;;;;;;4939000;28;20027;-76
2022/07/26 10:57:27;;;;;;;4.82;1.27;;;;;;;;;;4944811;28;20488;-76
2022/07/26 10:59:56;;;;;;;6.95;1.73;;;;;;;;;;4947222;28;20050;-77
2022/07/26 11:02:34;;;;;;;5.78;1.67;;;;;;;;;;4943030;28;20126;-75
2022/07/26 11:05:15;;;;;;;4.88;1.70;;;;;;;;;;4939752;28;20096;-77
2022/07/26 11:08:10;;;;;;;4.93;1.40;;;;;;;;;;4944164;28;20090;-76
2022/07/26 11:10:40;;;;;;;5.50;2.05;;;;;;;;;;4945563;28;20503;-75
2022/07/26 11:13:22;;;;;;;7.63;3.90;;;;;;;;;;4946766;28;20039;-77
2022/07/26 11:15:50;;;;;;;3.15;2.53;;;;;;;;;;4954577;28;20366;-78
2022/07/26 11:18:23;;;;;;;3.13;1.40;;;;;;;;;;4952331;28;20050;-78
2022/07/26 11:20:52;;;;;;;3.30;1.50;;;;;;;;;;4950930;28;20045;-75
2022/07/26 11:23:35;;;;;;;3.10;1.77;;;;;;;;;;4942435;28;20030;-75
2022/07/26 11:26:04;;;;;;;3.00;1.90;;;;;;;;;;4958558;28;20042;-77
2022/07/26 11:28:41;;;;;;;8.43;2.28;;;;;;;;;;4944464;28;20534;-77
2022/07/26 11:31:07;;;;;;;4.10;1.98;;;;;;;;;;4946035;28;20031;-77
2022/07/26 11:33:36;;;;;;;3.88;1.50;;;;;;;;;;4938764;28;20688;-78
2022/07/26 11:36:03;;;;;;;2.83;1.60;;;;;;;;;;4944327;28;20039;-77
2022/07/26 11:38:47;;;;;;;3.75;1.60;;;;;;;;;;4943904;28;20050;-78
2022/07/26 11:41:18;;;;;;;6.22;1.77;;;;;;;;;;4949807;28;20027;-76
2022/07/26 11:43:43;;;;;;;;;;;;;;;;;;4945622;28;20097;-76
2022/07/26 11:46:09;;;;;;;9.57;2.35;;;;;;;;;;4942150;28;19946;-76
2022/07/26 11:48:35;;;;;;;4.80;2.67;;;;;;;;;;4944605;28;20035;-77
2022/07/26 11:51:17;;;;;;;4.65;1.80;;;;;;;;;;4958397;28;20059;-76
2022/07/26 11:53:44;;;;;;;5.53;1.80;;;;;;;;;;4940334;28;20046;-76
2022/07/26 11:56:16;;;;;;;3.83;1.92;;;;;;;;;;4941004;28;20046;-76
2022/07/26 11:58:45;;;;;;;5.95;2.08;;;;;;;;;;4943851;28;20467;-75
2022/07/26 12:01:12;;;;;;;6.28;2.50;;;;;;;;;;4936919;28;20810;-76
2022/07/26 12:03:41;;;;;;;6.18;1.80;;;;;;;;;;4950483;28;20031;-76
2022/07/26 12:06:12;;;;;;;16.55;3.88;;;;;;;;;;4933892;28;20073;-76
2022/07/26 12:08:51;;;;;;;6.03;3.28;;;;;;;;;;4944694;28;20594;-77
2022/07/26 12:11:19;;;;;;;7.68;1.85;;;;;;;;;;4947579;28;20065;-75
2022/07/26 12:14:00;;;;;;;9.02;2.03;;;;;;;;;;4959574;28;20046;-78
2022/07/26 12:16:46;;;;;;;6.60;1.48;;;;;;;;;;4964486;28;20094;-78
2022/07/26 12:19:25;;;;;;;4.75;1.63;;;;;;;;;;4954328;28;20046;-77
2022/07/26 12:21:56;;;;;;;5.35;2.40;;;;;;;;;;4948502;28;20137;-76
2022/07/26 12:24:53;;;;;;;3.53;1.83;;;;;;;;;;4956412;28;20303;-76
2022/07/26 12:27:29;;;;;;;23.00;14.40;;;;;;;;;;4957549;28;20137;-75
2022/07/26 12:30:03;;;;;;;7.72;1.90;;;;;;;;;;4946593;28;20027;-76
2022/07/26 12:32:41;;;;;;;4.82;1.80;;;;;;;;;;4942831;28;20062;-75
2022/07/26 12:35:12;;;;;;;3.25;1.17;;;;;;;;;;4956852;28;20410;-76
2022/07/26 12:37:51;;;;;;;5.35;1.65;;;;;;;;;;4951277;28;20035;-76
2022/07/26 12:40:20;;;;;;;2.40;1.50;;;;;;;;;;4945369;28;20400;-76
2022/07/26 12:42:48;;;;;;;6.57;1.80;;;;;;;;;;4926552;29;20050;-76
2022/07/26 12:45:15;;;;;;;3.17;1.80;;;;;;;;;;4946954;28;20042;-77
2022/07/26 12:47:44;;;;;;;6.07;1.65;;;;;;;;;;4946757;28;20054;-78
2022/07/26 12:50:13;;;;;;;5.43;1.70;;;;;;;;;;4924085;28;20249;-76
2022/07/26 12:52:41;;;;;;;2.20;1.55;;;;;;;;;;4929309;29;20046;-76
2022/07/26 12:55:11;;;;;;;3.25;1.75;;;;;;;;;;4945043;29;20035;-77
2022/07/26 12:57:37;;;;;;;3.00;1.25;;;;;;;;;;4955910;28;20039;-75
2022/07/26 13:00:04;;;;;;;3.80;1.90;;;;;;;;;;4959372;29;20035;-77
2022/07/26 13:02:30;;;;;;;3.80;1.50;;;;;;;;;;4960420;29;20073;-77
2022/07/26 13:04:56;;;;;;;8.25;2.08;;;;;;;;;;4954736;29;20411;-77
2022/07/26 13:07:21;;;;;;;12.30;2.17;;;;;;;;;;4948126;28;20055;-77
2022/07/26 13:09:47;;;;;;;12.93;1.85;;;;;;;;;;4956536;28;20035;-76
2022/07/26 13:12:15;;;;;;;5.22;1.88;;;;;;;;;;4946154;28;20110;-77
2022/07/26 13:14:42;;;;;;;9.32;1.88;;;;;;;;;;4932331;28;20039;-79
2022/07/26 13:17:10;;;;;;;7.40;1.60;;;;;;;;;;4947637;28;20062;-76
2022/07/26 13:19:38;;;;;;;4.78;2.00;;;;;;;;;;4952570;28;20109;-78
2022/07/26 13:22:05;;;;;;;6.00;2.65;;;;;;;;;;4962243;28;20035;-76
2022/07/26 13:24:34;;;;;;;3.13;1.95;;;;;;;;;;4958859;28;20039;-76
2022/07/26 13:27:00;;;;;;;5.95;1.48;;;;;;;;;;4938814;29;20035;-78
2022/07/26 13:29:28;;;;;;;4.88;1.80;;;;;;;;;;4946140;29;20027;-75
2022/07/26 13:31:54;;;;;;;5.57;1.80;;;;;;;;;;4939130;28;20026;-77
2022/07/26 13:34:24;;;;;;;4.88;1.50;;;;;;;;;;4942172;28;20033;-78
2022/07/26 13:36:50;;;;;;;3.23;1.67;;;;;;;;;;4946564;28;20681;-78
2022/07/26 13:39:20;;;;;;;3.38;1.48;;;;;;;;;;4943817;28;20596;-77
2022/07/26 13:41:46;;;;;;;8.23;1.63;;;;;;;;;;4944442;28;20058;-76
2022/07/26 13:44:15;;;;;;;8.40;1.73;;;;;;;;;;4942101;28;20039;-75
2022/07/26 13:46:41;;;;;;;2.38;1.30;;;;;;;;;;4948959;28;20039;-78
2022/07/26 13:49:17;;;;;;;5.38;1.33;;;;;;;;;;4945807;28;20494;-78
2022/07/26 13:51:58;;;;;;;4.00;1.30;;;;;;;;;;4946982;28;20039;-79
2022/07/26 13:54:39;;;;;;;6.80;1.65;;;;;;;;;;4941990;29;20035;-76
2022/07/26 13:57:06;;;;;;;3.90;1.90;;;;;;;;;;4962368;28;20113;-77
2022/07/26 13:59:33;;;;;;;4.75;1.65;;;;;;;;;;4945308;28;20034;-77
2022/07/26 14:01:58;;;;;;;5.70;1.80;;;;;;;;;;4949870;28;20046;-75
2022/07/26 14:04:25;;;;;;;3.22;1.40;;;;;;;;;;4932942;29;20031;-77
2022/07/26 14:06:51;;;;;;;2.83;1.30;;;;;;;;;;4966731;28;20334;-76
2022/07/26 14:09:18;;;;;;;6.85;1.00;;;;;;;;;;4951815;29;20077;-77
2022/07/26 14:11:44;;;;;;;5.28;1.73;;;;;;;;;;4952493;29;20106;-77
2022/07/26 14:14:10;;;;;;;8.98;1.60;;;;;;;;;;4953607;28;20114;-78
2022/07/26 14:16:36;;;;;;;3.30;1.33;;;;;;;;;;4954248;29;20035;-79
2022/07/26 14:19:02;;;;;;;3.40;1.33;;;;;;;;;;4951431;28;20042;-77
2022/07/26 14:21:29;;;;;;;2.38;1.30;;;;;;;;;;4952445;28;20408;-77
2022/07/26 14:24:00;;;;;;;3.67;1.65;;;;;;;;;;4952264;29;20042;-78
2022/07/26 14:26:26;;;;;;;5.03;1.20;;;;;;;;;;4953112;29;20456;-77
2022/07/26 14:28:52;;;;;;;10.63;2.00;;;;;;;;;;4952575;28;20122;-77
2022/07/26 14:31:17;;;;;;;3.47;1.58;;;;;;;;;;4953273;29;20562;-78
2022/07/26 14:33:43;;;;;;;9.20;1.15;;;;;;;;;;4952168;29;20039;-77